sensor_id;sensor_type;location;lat;lon;timestamp;P1;durP1;ratioP1;P2;durP2;ratioP2
8735;SDS011;4404;49.308;12.178;2023-02-15T08:17:57;1.00;;;1.00;;
8735;SDS011;4404;49.308;12.178;2023-02-15T08:23:59;1.00;;;1.00;;
8735;SDS011;4404;49.308;12.178;2023-02-15T08:30:01;1.00;;;1.00;;
8735;SDS011;4404;49.308;12.178;2023-02-15T08:36:06;1.10;;;1.10;;
8735;SDS011;4404;49.308;12.178;2023-02-15T08:42:10;1.10;;;1.10;;
8735;SDS011;4404;49.308;12.178;2023-02-15T08:48:12;1.10;;;1.10;;
8735;SDS011;4404;49.308;12.178;2023-02-15T08:54:16;1.00;;;1.00;;
8735;SDS011;4404;49.308;12.178;2023-02-15T09:00:20;1.10;;;1.10;;
8735;SDS011;4404;49.308;12.178;2023-02-15T09:06:23;1.10;;;1.10;;
8735;SDS011;4404;49.308;12.178;2023-02-15T09:12:27;1.10;;;1.10;;
8735;SDS011;4404;49.308;12.178;2023-02-15T09:18:29;1.00;;;1.00;;
8735;SDS011;4404;49.308;12.178;2023-02-15T09:24:35;1.10;;;1.10;;
8735;SDS011;4404;49.308;12.178;2023-02-15T09:30:38;1.13;;;1.13;;
8735;SDS011;4404;49.308;12.178;2023-02-15T09:36:40;1.10;;;1.10;;
8735;SDS011;4404;49.308;12.178;2023-02-15T09:49:15;1.00;;;1.00;;
8735;SDS011;4404;49.308;12.178;2023-02-15T09:55:33;1.00;;;1.00;;
8735;SDS011;4404;49.308;12.178;2023-02-15T10:01:48;1.10;;;1.10;;
8735;SDS011;4404;49.308;12.178;2023-02-15T10:14:45;1.00;;;1.00;;
8735;SDS011;4404;49.308;12.178;2023-02-15T10:21:14;1.00;;;1.00;;
8735;SDS011;4404;49.308;12.178;2023-02-15T10:27:29;1.20;;;1.20;;
8735;SDS011;4404;49.308;12.178;2023-02-15T10:33:37;1.10;;;1.10;;
8735;SDS011;4404;49.308;12.178;2023-02-15T10:39:43;1.10;;;1.10;;
8735;SDS011;4404;49.308;12.178;2023-02-15T10:45:57;1.10;;;1.10;;
8735;SDS011;4404;49.308;12.178;2023-02-15T10:52:12;1.10;;;1.10;;
8735;SDS011;4404;49.308;12.178;2023-02-15T10:58:34;1.13;;;1.13;;
8735;SDS011;4404;49.308;12.178;2023-02-15T11:04:59;1.10;;;1.10;;
8735;SDS011;4404;49.308;12.178;2023-02-15T11:11:19;1.10;;;1.10;;
8735;SDS011;4404;49.308;12.178;2023-02-15T11:17:25;1.10;;;1.10;;
8735;SDS011;4404;49.308;12.178;2023-02-15T11:23:39;1.10;;;1.10;;
8735;SDS011;4404;49.308;12.178;2023-02-15T11:29:46;1.10;;;1.10;;
8735;SDS011;4404;49.308;12.178;2023-02-15T11:35:57;1.00;;;1.00;;
8735;SDS011;4404;49.308;12.178;2023-02-15T11:42:06;1.10;;;1.10;;
8735;SDS011;4404;49.308;12.178;2023-02-15T11:48:15;1.10;;;1.10;;
8735;SDS011;4404;49.308;12.178;2023-02-15T11:54:17;1.63;;;1.53;;
8735;SDS011;4404;49.308;12.178;2023-02-15T12:00:30;1.00;;;1.00;;
8735;SDS011;4404;49.308;12.178;2023-02-15T12:06:38;1.10;;;1.10;;
8735;SDS011;4404;49.308;12.178;2023-02-15T12:12:45;1.00;;;1.00;;
8735;SDS011;4404;49.308;12.178;2023-02-15T12:18:49;1.10;;;1.10;;
8735;SDS011;4404;49.308;12.178;2023-02-15T12:24:54;1.10;;;1.10;;
8735;SDS011;4404;49.308;12.178;2023-02-15T12:30:59;1.00;;;1.00;;
8735;SDS011;4404;49.308;12.178;2023-02-15T12:37:10;1.10;;;1.10;;
8735;SDS011;4404;49.308;12.178;2023-02-15T12:43:24;1.20;;;1.20;;
8735;SDS011;4404;49.308;12.178;2023-02-15T12:49:28;1.00;;;1.00;;
8735;SDS011;4404;49.308;12.178;2023-02-15T12:55:33;1.00;;;1.00;;
8735;SDS011;4404;49.308;12.178;2023-02-15T13:01:35;1.20;;;1.20;;
8735;SDS011;4404;49.308;12.178;2023-02-15T13:07:37;1.13;;;1.13;;
8735;SDS011;4404;49.308;12.178;2023-02-15T13:13:47;1.20;;;1.20;;
8735;SDS011;4404;49.308;12.178;2023-02-15T13:19:54;1.10;;;1.10;;
8735;SDS011;4404;49.308;12.178;2023-02-15T13:25:59;1.40;;;1.30;;
8735;SDS011;4404;49.308;12.178;2023-02-15T13:32:10;1.20;;;1.20;;
8735;SDS011;4404;49.308;12.178;2023-02-15T13:38:28;1.20;;;1.20;;
8735;SDS011;4404;49.308;12.178;2023-02-15T13:44:51;1.40;;;1.30;;
8735;SDS011;4404;49.308;12.178;2023-02-15T13:51:24;1.40;;;1.30;;
8735;SDS011;4404;49.308;12.178;2023-02-15T13:57:41;1.23;;;1.23;;
8735;SDS011;4404;49.308;12.178;2023-02-15T14:04:15;1.40;;;1.30;;
8735;SDS011;4404;49.308;12.178;2023-02-15T14:10:43;1.17;;;1.17;;
8735;SDS011;4404;49.308;12.178;2023-02-15T14:16:55;1.20;;;1.20;;
8735;SDS011;4404;49.308;12.178;2023-02-15T14:23:08;1.50;;;1.40;;
8735;SDS011;4404;49.308;12.178;2023-02-15T14:29:37;1.37;;;1.27;;
8735;SDS011;4404;49.308;12.178;2023-02-15T14:35:49;1.40;;;1.30;;
8735;SDS011;4404;49.308;12.178;2023-02-15T14:41:52;1.63;;;1.53;;
8735;SDS011;4404;49.308;12.178;2023-02-15T14:48:03;1.20;;;1.17;;
8735;SDS011;4404;49.308;12.178;2023-02-15T14:54:52;1.40;;;1.30;;
8735;SDS011;4404;49.308;12.178;2023-02-15T15:01:03;1.40;;;1.30;;
8735;SDS011;4404;49.308;12.178;2023-02-15T15:07:12;1.40;;;1.30;;
8735;SDS011;4404;49.308;12.178;2023-02-15T15:13:38;1.23;;;1.20;;
8735;SDS011;4404;49.308;12.178;2023-02-15T15:19:59;1.40;;;1.30;;
8735;SDS011;4404;49.308;12.178;2023-02-15T15:32:30;1.10;;;1.10;;
8735;SDS011;4404;49.308;12.178;2023-02-15T15:38:37;1.37;;;1.27;;
8735;SDS011;4404;49.308;12.178;2023-02-15T15:44:53;1.73;;;1.63;;
8735;SDS011;4404;49.308;12.178;2023-02-15T15:51:17;1.50;;;1.40;;
8735;SDS011;4404;49.308;12.178;2023-02-15T15:57:23;1.40;;;1.30;;
8735;SDS011;4404;49.308;12.178;2023-02-15T16:03:29;1.10;;;1.10;;
8735;SDS011;4404;49.308;12.178;2023-02-15T16:09:33;1.40;;;1.30;;
8735;SDS011;4404;49.308;12.178;2023-02-15T16:15:36;1.50;;;1.40;;
8735;SDS011;4404;49.308;12.178;2023-02-15T16:21:49;1.93;;;1.80;;
8735;SDS011;4404;49.308;12.178;2023-02-15T16:27:53;1.83;;;1.73;;
8735;SDS011;4404;49.308;12.178;2023-02-15T16:33:55;1.70;;;1.60;;
8735;SDS011;4404;49.308;12.178;2023-02-15T16:39:57;1.80;;;1.70;;
8735;SDS011;4404;49.308;12.178;2023-02-15T16:46:04;1.80;;;1.70;;
8735;SDS011;4404;49.308;12.178;2023-02-15T16:52:12;1.60;;;1.50;;
8735;SDS011;4404;49.308;12.178;2023-02-15T16:58:25;2.27;;;2.07;;
8735;SDS011;4404;49.308;12.178;2023-02-15T18:16:13;3.17;;;2.30;;
8735;SDS011;4404;49.308;12.178;2023-02-15T18:22:17;10.27;;;5.57;;
8735;SDS011;4404;49.308;12.178;2023-02-15T18:28:20;3.80;;;2.47;;
8735;SDS011;4404;49.308;12.178;2023-02-15T18:34:24;3.27;;;2.30;;
8735;SDS011;4404;49.308;12.178;2023-02-15T18:40:30;10.67;;;5.83;;
8735;SDS011;4404;49.308;12.178;2023-02-15T18:46:32;23.47;;;13.70;;
8735;SDS011;4404;49.308;12.178;2023-02-15T18:52:36;23.80;;;12.57;;
8735;SDS011;4404;49.308;12.178;2023-02-15T18:58:39;4.27;;;2.93;;
